Time;durP1;ratioP1;P1;durP2;ratioP2;P2;SDS_P1;SDS_P2;PMS_P1;PMS_P2;Temp;Humidity;BMP_temperature;BMP_pressure;BME280_temperature;BME280_humidity;BME280_pressure;Samples;Min_cycle;Max_cycle;Signal;HPM_P1;HPM_P2
2022/12/24 00:01:47;;;;;;;65.85;21.23;;;6.90;99.90;;;;;;5046705;28;20076;-46
2022/12/24 00:04:12;;;;;;;76.85;20.65;;;6.10;99.90;;;;;;5046836;28;20040;-45
2022/12/24 00:06:38;;;;;;;93.10;22.08;;;6.60;99.90;;;;;;5045488;28;20144;-45
2022/12/24 00:09:04;;;;;;;78.35;21.27;;;6.20;99.90;;;;;;5047161;28;20045;-45
2022/12/24 00:11:29;;;;;;;85.43;23.00;;;7.10;99.90;;;;;;5047168;28;20045;-46
2022/12/24 00:13:55;;;;;;;84.53;22.85;;;6.50;99.90;;;;;;5047353;28;20115;-45
2022/12/24 00:16:21;;;;;;;89.03;22.88;;;6.00;99.90;;;;;;5046751;28;20502;-44
2022/12/24 00:18:46;;;;;;;95.03;24.55;;;6.20;99.90;;;;;;5047403;28;20084;-45
2022/12/24 00:21:13;;;;;;;85.93;24.02;;;6.20;99.90;;;;;;5046583;28;20040;-44
2022/12/24 00:23:40;;;;;;;98.57;24.10;;;6.20;99.90;;;;;;5046658;28;20128;-46
2022/12/24 00:26:05;;;;;;;90.22;22.58;;;6.10;99.90;;;;;;5046831;28;20063;-45
2022/12/24 00:28:31;;;;;;;96.20;24.45;;;6.20;99.90;;;;;;5046415;28;20044;-45
2022/12/24 00:30:57;;;;;;;129.70;25.65;;;6.10;99.90;;;;;;5046498;28;20037;-44
2022/12/24 00:33:22;;;;;;;118.88;26.00;;;6.30;99.90;;;;;;5045961;28;20047;-45
2022/12/24 00:35:50;;;;;;;139.23;25.15;;;6.30;99.90;;;;;;5046161;28;20717;-44
2022/12/24 00:38:16;;;;;;;191.00;29.55;;;7.00;99.90;;;;;;5046479;28;20128;-45
2022/12/24 00:40:42;;;;;;;107.82;24.60;;;6.30;99.90;;;;;;5045685;28;20136;-44
2022/12/24 00:43:07;;;;;;;112.05;24.73;;;6.80;99.90;;;;;;5046366;28;20045;-45
2022/12/24 00:45:33;;;;;;;133.25;26.73;;;6.40;99.90;;;;;;5046040;28;20481;-46
2022/12/24 00:47:59;;;;;;;115.28;26.15;;;6.20;99.90;;;;;;5045888;28;20493;-45
2022/12/24 00:50:24;;;;;;;142.68;27.90;;;6.60;99.90;;;;;;5046343;28;20043;-45
2022/12/24 00:52:50;;;;;;;159.75;27.92;;;6.30;99.90;;;;;;5046653;28;20487;-45
2022/12/24 00:55:16;;;;;;;194.57;29.98;;;7.30;99.90;;;;;;5046350;28;20073;-45
2022/12/24 00:57:41;;;;;;;163.77;27.25;;;6.30;99.90;;;;;;5046260;28;20049;-46
2022/12/24 01:00:08;;;;;;;166.82;28.77;;;6.30;99.90;;;;;;5046097;28;20049;-45
2022/12/24 01:02:33;;;;;;;196.13;29.17;;;6.30;99.90;;;;;;5046165;28;20708;-45
2022/12/24 01:05:11;;;;;;;135.07;27.00;;;6.40;99.90;;;;;;5045856;28;20076;-45
2022/12/24 01:07:45;;;;;;;146.98;26.52;;;6.40;99.90;;;;;;5046296;28;20049;-45
2022/12/24 01:10:14;;;;;;;177.20;29.23;;;6.60;99.90;;;;;;5046696;28;20040;-44
2022/12/24 01:12:40;;;;;;;161.18;27.55;;;7.20;99.90;;;;;;5046312;28;20154;-46
2022/12/24 01:15:06;;;;;;;177.10;28.92;;;7.10;99.90;;;;;;5046779;28;20474;-45
2022/12/24 01:17:33;;;;;;;254.00;31.75;;;6.40;99.90;;;;;;5046722;28;20167;-44
2022/12/24 01:19:59;;;;;;;253.25;31.08;;;6.30;99.90;;;;;;5046439;28;20041;-46
2022/12/24 01:22:25;;;;;;;239.68;32.42;;;6.90;99.90;;;;;;5046574;28;20047;-45
2022/12/24 01:24:50;;;;;;;262.30;31.73;;;6.80;99.90;;;;;;5050117;28;20079;-44
2022/12/24 01:27:16;;;;;;;122.00;24.85;;;7.20;99.90;;;;;;5050000;28;20044;-46
2022/12/24 01:29:42;;;;;;;232.98;30.13;;;6.40;99.90;;;;;;5049950;28;20052;-45
2022/12/24 01:32:07;;;;;;;249.65;28.35;;;7.10;99.90;;;;;;5050156;28;20127;-46
2022/12/24 01:34:33;;;;;;;157.50;28.55;;;6.20;99.90;;;;;;5049797;28;20099;-45
2022/12/24 01:36:59;;;;;;;235.25;31.00;;;6.40;99.90;;;;;;5049834;28;20040;-45
2022/12/24 01:39:24;;;;;;;286.10;32.80;;;6.80;99.90;;;;;;5050049;28;20151;-45
2022/12/24 01:44:39;;;;;;;159.75;28.70;;;7.00;99.90;;;;;;5049660;28;20064;-45
2022/12/24 01:47:25;;;;;;;230.95;32.38;;;6.40;99.90;;;;;;5049894;28;20078;-45
2022/12/24 01:50:00;;;;;;;169.18;28.35;;;6.20;99.90;;;;;;5049487;28;20068;-48
2022/12/24 01:52:32;;;;;;;337.13;37.38;;;6.30;99.90;;;;;;5049098;28;20059;-46
2022/12/24 01:55:08;;;;;;;223.13;32.17;;;6.40;99.90;;;;;;5049543;28;20136;-46
2022/12/24 01:57:40;;;;;;;285.90;34.90;;;6.40;99.90;;;;;;5049304;28;20048;-45
2022/12/24 02:00:09;;;;;;;234.20;32.15;;;6.40;99.90;;;;;;5049366;28;20049;-45
2022/12/24 02:02:37;;;;;;;180.02;28.55;;;6.40;99.90;;;;;;5048521;28;20356;-45
2022/12/24 02:05:13;;;;;;;210.40;30.55;;;6.20;99.90;;;;;;5049535;28;20140;-45
2022/12/24 02:07:40;;;;;;;198.07;31.92;;;6.40;99.90;;;;;;5048648;28;20075;-45
2022/12/24 02:10:11;;;;;;;223.13;33.67;;;6.30;99.90;;;;;;5049104;28;20080;-45
2022/12/24 02:12:37;;;;;;;235.43;32.13;;;6.40;99.90;;;;;;5048841;28;20048;-46
2022/12/24 02:15:05;;;;;;;206.45;30.55;;;6.20;99.90;;;;;;5048860;28;20060;-45
2022/12/24 02:17:36;;;;;;;177.10;29.00;;;6.40;99.90;;;;;;5048271;28;20111;-45
2022/12/24 02:20:02;;;;;;;189.60;31.02;;;7.20;99.90;;;;;;5049170;28;20045;-45
2022/12/24 02:22:43;;;;;;;173.57;28.95;;;6.90;99.90;;;;;;5048228;28;20502;-44
2022/12/24 02:25:53;;;;;;;156.73;28.65;;;6.40;99.90;;;;;;5048679;28;20054;-45
2022/12/24 02:28:37;;;;;;;199.30;31.83;;;6.40;99.90;;;;;;5048875;28;20126;-44
2022/12/24 02:31:15;;;;;;;146.23;28.65;;;6.40;99.90;;;;;;5048108;28;20063;-45
2022/12/24 02:34:05;;;;;;;127.95;29.80;;;6.40;99.90;;;;;;5047648;28;20108;-46
2022/12/24 02:36:36;;;;;;;147.85;29.85;;;6.40;99.90;;;;;;5048317;28;20537;-45
2022/12/24 02:39:05;;;;;;;112.00;27.77;;;6.90;99.90;;;;;;5048677;28;20056;-45
2022/12/24 02:44:24;;;;;;;135.65;27.90;;;6.50;99.90;;;;;;5048609;28;20089;-45
2022/12/24 02:46:51;;;;;;;126.90;30.05;;;6.30;99.90;;;;;;5048781;28;20115;-46
2022/12/24 02:49:16;;;;;;;163.57;32.15;;;6.60;99.90;;;;;;5048458;28;20071;-46
2022/12/24 02:51:42;;;;;;;128.23;28.85;;;6.30;99.90;;;;;;5048411;28;20037;-46
2022/12/24 02:54:08;;;;;;;99.32;26.05;;;7.00;99.90;;;;;;5048600;28;20479;-46
2022/12/24 02:57:02;;;;;;;85.80;22.95;;;6.60;99.90;;;;;;5048410;28;20175;-46
2022/12/24 02:59:28;;;;;;;76.05;22.65;;;6.60;99.90;;;;;;5048539;28;20102;-45
2022/12/24 03:02:02;;;;;;;75.82;21.13;;;6.60;99.90;;;;;;5047041;28;20453;-44
2022/12/24 03:05:06;;;;;;;65.30;21.23;;;6.80;99.90;;;;;;5048280;28;20045;-44
2022/12/24 03:07:55;;;;;;;63.05;18.92;;;6.90;99.90;;;;;;5035136;28;20049;-46
2022/12/24 03:10:48;;;;;;;54.35;18.48;;;8.10;99.90;;;;;;5048203;28;20086;-46
2022/12/24 03:13:14;;;;;;;;;;;7.20;99.90;;;;;;5048470;28;20041;-44
2022/12/24 03:15:41;;;;;;;60.13;18.13;;;7.60;99.90;;;;;;5048076;28;19921;-45
2022/12/24 03:18:09;;;;;;;67.38;20.60;;;8.00;99.90;;;;;;5047488;28;20522;-45
2022/12/24 03:20:44;;;;;;;43.38;15.40;;;7.40;99.90;;;;;;5048103;28;20045;-44
2022/12/24 03:23:11;;;;;;;42.80;12.77;;;7.80;99.90;;;;;;5048079;28;20451;-44
2022/12/24 03:25:40;;;;;;;45.95;11.82;;;7.50;99.90;;;;;;5047772;28;20091;-45
2022/12/24 03:28:07;;;;;;;45.20;14.02;;;7.70;99.90;;;;;;5047404;28;20044;-44
2022/12/24 03:30:33;;;;;;;40.67;11.23;;;7.60;99.90;;;;;;5047467;28;20112;-44
2022/12/24 03:32:59;;;;;;;38.03;10.15;;;8.50;99.90;;;;;;5046923;28;20512;-44
2022/12/24 03:35:24;;;;;;;35.15;9.73;;;7.70;99.90;;;;;;5047491;28;20091;-44
2022/12/24 03:37:50;;;;;;;47.35;10.77;;;7.80;99.90;;;;;;5047178;28;20049;-45
2022/12/24 03:40:16;;;;;;;49.42;11.35;;;8.20;99.90;;;;;;5047564;28;20356;-45
2022/12/24 03:42:42;;;;;;;35.58;8.95;;;7.80;99.90;;;;;;5047285;28;20075;-44
2022/12/24 03:45:08;;;;;;;33.97;9.38;;;7.80;99.90;;;;;;5047393;28;20086;-45
2022/12/24 03:47:34;;;;;;;38.50;8.25;;;7.80;99.90;;;;;;5047050;28;20037;-45
2022/12/24 03:50:00;;;;;;;37.28;7.10;;;7.80;99.90;;;;;;5047052;28;20045;-45
2022/12/24 03:52:25;;;;;;;38.97;7.13;;;6.40;99.90;;;;;;5047711;28;20483;-46
2022/12/24 03:54:51;;;;;;;33.03;5.70;;;7.80;99.90;;;;;;5045976;28;20124;-45
2022/12/24 03:57:17;;;;;;;34.88;5.55;;;7.60;99.90;;;;;;5047294;28;20053;-45
2022/12/24 03:59:43;;;;;;;35.92;9.05;;;7.80;99.90;;;;;;5047259;28;20041;-45
2022/12/24 04:02:09;;;;;;;42.72;6.35;;;7.80;99.90;;;;;;5046765;28;20033;-44
2022/12/24 04:04:36;;;;;;;42.00;6.50;;;7.80;99.90;;;;;;5045998;28;20040;-45
2022/12/24 04:07:03;;;;;;;50.08;7.93;;;7.80;99.90;;;;;;5046850;28;20788;-46
2022/12/24 04:09:29;;;;;;;44.17;7.22;;;8.10;99.90;;;;;;5047220;28;20045;-45
2022/12/24 04:11:54;;;;;;;34.20;5.70;;;8.50;99.90;;;;;;5046943;28;20045;-44
2022/12/24 04:14:20;;;;;;;44.17;6.72;;;7.80;99.90;;;;;;5047148;28;20075;-45
2022/12/24 04:16:46;;;;;;;35.08;5.78;;;8.10;99.90;;;;;;5046863;28;20049;-45
2022/12/24 04:19:11;;;;;;;55.05;6.47;;;7.80;99.90;;;;;;5046600;28;20049;-45
2022/12/24 04:21:37;;;;;;;34.42;5.35;;;7.70;99.90;;;;;;5046590;28;20102;-45
2022/12/24 04:24:03;;;;;;;37.72;5.22;;;7.70;99.90;;;;;;5046841;28;20665;-45
2022/12/24 04:26:29;;;;;;;41.08;5.65;;;7.80;99.90;;;;;;5047009;28;20064;-44
2022/12/24 04:28:54;;;;;;;32.92;4.65;;;7.80;99.90;;;;;;5046567;28;20645;-46
2022/12/24 04:31:20;;;;;;;41.30;5.72;;;8.20;99.90;;;;;;5046260;28;20094;-45
2022/12/24 04:33:46;;;;;;;44.67;7.57;;;7.80;99.90;;;;;;5046829;28;20799;-44
2022/12/24 04:36:15;;;;;;;44.78;7.20;;;7.70;99.90;;;;;;5046761;28;20053;-44
2022/12/24 04:38:42;;;;;;;32.97;3.97;;;7.60;99.90;;;;;;5046592;28;20910;-47
2022/12/24 04:41:11;;;;;;;35.83;5.43;;;7.50;99.90;;;;;;5046468;28;20045;-45
2022/12/24 04:43:37;;;;;;;37.35;5.95;;;7.20;99.90;;;;;;5046715;28;20041;-44
2022/12/24 04:46:13;;;;;;;30.35;5.00;;;7.30;99.90;;;;;;5046453;28;20094;-45
2022/12/24 04:48:40;;;;;;;38.25;5.47;;;7.40;99.90;;;;;;5046950;28;20033;-45
2022/12/24 04:51:06;;;;;;;30.83;4.55;;;7.40;99.90;;;;;;5046494;28;20843;-45
2022/12/24 04:53:33;;;;;;;37.08;5.53;;;7.50;99.90;;;;;;5046696;28;20048;-45
2022/12/24 04:55:59;;;;;;;46.60;5.68;;;7.50;99.90;;;;;;5046534;28;20076;-46
2022/12/24 04:58:26;;;;;;;46.22;5.30;;;7.50;99.90;;;;;;5048469;28;20153;-44
2022/12/24 05:00:52;;;;;;;34.08;5.03;;;7.50;99.90;;;;;;5050224;28;20198;-45
2022/12/24 05:03:17;;;;;;;32.33;4.95;;;8.40;99.90;;;;;;5050501;28;20048;-45
2022/12/24 05:05:43;;;;;;;39.45;4.78;;;7.80;99.90;;;;;;5050696;28;20429;-45
2022/12/24 05:08:09;;;;;;;32.55;5.22;;;8.50;99.90;;;;;;5050660;28;20124;-46
2022/12/24 05:10:35;;;;;;;47.10;6.80;;;7.60;99.90;;;;;;5050682;28;20033;-45
2022/12/24 05:13:00;;;;;;;37.33;5.55;;;8.40;99.90;;;;;;5050879;28;20190;-45
2022/12/24 05:15:26;;;;;;;42.75;5.70;;;7.60;99.90;;;;;;5050673;28;20041;-44
2022/12/24 05:17:52;;;;;;;43.95;5.47;;;7.60;99.90;;;;;;5050155;28;20052;-46
2022/12/24 05:20:17;;;;;;;34.22;4.57;;;7.80;99.90;;;;;;5050269;28;20124;-45
2022/12/24 05:28:16;;;;;;;45.55;4.90;;;7.50;99.90;;;;;;5050093;28;20516;-44
2022/12/24 05:30:42;;;;;;;37.38;6.70;;;7.50;99.90;;;;;;5049564;28;20033;-44
2022/12/24 05:33:08;;;;;;;42.83;5.55;;;9.30;99.90;;;;;;5050368;28;20049;-45
2022/12/24 05:35:34;;;;;;;45.95;5.28;;;7.50;99.90;;;;;;5050600;28;20736;-44
2022/12/24 05:37:59;;;;;;;47.70;5.30;;;8.50;99.90;;;;;;5050083;28;20032;-44
2022/12/24 05:40:25;;;;;;;50.75;6.13;;;7.80;99.90;;;;;;5049885;28;20087;-44
2022/12/24 05:42:51;;;;;;;48.78;5.45;;;7.60;99.90;;;;;;5050078;28;20049;-44
2022/12/24 05:45:16;;;;;;;49.25;4.80;;;8.50;99.90;;;;;;5049840;28;20118;-45
2022/12/24 05:47:42;;;;;;;43.97;5.32;;;7.80;99.90;;;;;;5050473;28;20037;-45
2022/12/24 05:50:08;;;;;;;53.28;5.85;;;7.70;99.90;;;;;;5049637;28;20122;-46
2022/12/24 05:52:34;;;;;;;51.33;5.85;;;7.70;99.90;;;;;;5050265;28;20045;-45
2022/12/24 05:55:00;;;;;;;56.97;7.05;;;8.00;99.90;;;;;;5049629;28;20055;-46
2022/12/24 05:57:25;;;;;;;49.03;7.13;;;8.00;99.90;;;;;;5049636;28;20048;-46
2022/12/24 05:59:51;;;;;;;51.95;5.40;;;8.00;99.90;;;;;;5049838;28;20087;-46
2022/12/24 06:02:17;;;;;;;55.25;6.68;;;8.20;99.90;;;;;;5049779;28;20731;-45
2022/12/24 06:04:42;;;;;;;65.93;7.70;;;8.30;99.90;;;;;;5048859;28;20040;-46
2022/12/24 06:07:08;;;;;;;59.63;6.50;;;7.70;99.90;;;;;;5048788;28;20387;-45
2022/12/24 06:09:33;;;;;;;47.70;6.45;;;7.80;99.90;;;;;;5048201;28;20452;-45
2022/12/24 06:11:59;;;;;;;56.42;6.15;;;7.60;99.90;;;;;;5048802;28;20071;-45
2022/12/24 06:14:25;;;;;;;60.38;6.85;;;7.50;99.90;;;;;;5048075;28;20048;-44
2022/12/24 06:16:50;;;;;;;52.67;6.30;;;7.50;99.90;;;;;;5048041;28;20047;-44
2022/12/24 06:19:16;;;;;;;54.30;5.97;;;7.50;99.90;;;;;;5048307;28;20084;-45
2022/12/24 06:21:42;;;;;;;52.00;6.20;;;7.80;99.90;;;;;;5048230;28;20041;-44
2022/12/24 06:24:08;;;;;;;55.58;6.38;;;8.00;99.90;;;;;;5048288;28;20155;-44
2022/12/24 06:26:33;;;;;;;47.65;7.05;;;7.60;99.90;;;;;;5048113;28;20037;-45
2022/12/24 06:28:59;;;;;;;54.33;7.35;;;7.70;99.90;;;;;;5048273;28;20052;-45
2022/12/24 06:31:25;;;;;;;53.72;7.47;;;7.80;99.90;;;;;;5047761;28;20076;-45
2022/12/24 06:33:51;;;;;;;45.65;5.70;;;7.60;99.90;;;;;;5048139;28;20479;-45
2022/12/24 06:36:20;;;;;;;57.63;6.18;;;7.50;99.90;;;;;;5046517;28;20077;-45
2022/12/24 06:38:47;;;;;;;62.97;8.23;;;7.70;99.90;;;;;;5047594;28;20548;-45
2022/12/24 06:41:13;;;;;;;48.13;6.60;;;7.90;99.90;;;;;;5047737;28;20414;-45
2022/12/24 06:43:42;;;;;;;65.43;7.53;;;7.50;99.90;;;;;;5047807;28;20510;-45
2022/12/24 06:46:08;;;;;;;44.40;6.82;;;8.20;99.90;;;;;;5048085;28;20427;-45
2022/12/24 06:48:33;;;;;;;53.38;6.40;;;7.50;99.90;;;;;;5047857;28;20086;-45
2022/12/24 06:51:02;;;;;;;47.50;6.63;;;7.40;99.90;;;;;;5047925;28;20071;-45
2022/12/24 06:53:28;;;;;;;59.10;8.23;;;7.80;99.90;;;;;;5047566;28;20044;-44
2022/12/24 06:56:01;;;;;;;47.88;6.63;;;8.30;99.90;;;;;;5047890;28;20037;-44
2022/12/24 06:58:27;;;;;;;55.08;5.95;;;7.40;99.90;;;;;;5047804;28;20036;-45
2022/12/24 07:00:52;;;;;;;37.53;8.15;;;7.70;99.90;;;;;;5047621;28;20367;-47
2022/12/24 07:03:18;;;;;;;60.88;8.00;;;7.60;99.90;;;;;;5047794;28;20041;-44
2022/12/24 07:05:44;;;;;;;69.13;11.50;;;7.20;99.90;;;;;;5009232;28;1097559;-46
2022/12/24 07:08:09;;;;;;;52.80;9.43;;;7.30;99.90;;;;;;5048896;28;20464;-44
2022/12/24 07:10:35;;;;;;;51.00;7.65;;;7.50;99.90;;;;;;5048630;28;20040;-46
2022/12/24 07:13:01;;;;;;;66.45;10.07;;;7.40;99.90;;;;;;5048506;28;20047;-45
2022/12/24 07:15:26;;;;;;;60.58;8.27;;;7.10;99.90;;;;;;5048130;28;20051;-45
2022/12/24 07:17:52;;;;;;;58.72;9.00;;;7.80;99.90;;;;;;5048364;28;20084;-45
2022/12/24 07:20:18;;;;;;;70.28;8.60;;;7.00;99.90;;;;;;5048033;28;20056;-45
2022/12/24 07:22:43;;;;;;;58.05;8.18;;;7.20;99.90;;;;;;5048396;28;20049;-44
2022/12/24 07:25:10;;;;;;;60.58;9.52;;;7.90;99.90;;;;;;5048413;28;20036;-45
2022/12/24 07:27:36;;;;;;;58.40;8.40;;;7.20;99.90;;;;;;5048223;28;20037;-43
2022/12/24 07:30:03;;;;;;;49.42;8.15;;;7.40;99.90;;;;;;5048390;28;20124;-44
2022/12/24 07:32:28;;;;;;;54.75;7.63;;;7.40;99.90;;;;;;5048352;28;20447;-45
2022/12/24 07:34:54;;;;;;;56.55;8.48;;;7.60;99.90;;;;;;5048450;28;20147;-45
2022/12/24 07:37:20;;;;;;;47.47;8.02;;;7.70;99.90;;;;;;5047837;28;20044;-45
2022/12/24 07:39:46;;;;;;;47.60;8.38;;;7.90;99.90;;;;;;5047796;28;20084;-44
2022/12/24 07:42:11;;;;;;;47.80;6.68;;;7.90;99.90;;;;;;5047807;28;20140;-46
2022/12/24 07:44:37;;;;;;;55.80;8.25;;;7.70;99.90;;;;;;5047874;28;20045;-46
2022/12/24 07:47:03;;;;;;;54.58;8.95;;;7.80;99.90;;;;;;5047820;28;20482;-45
2022/12/24 07:49:28;;;;;;;40.67;7.30;;;7.80;99.90;;;;;;5047707;28;20037;-46
2022/12/24 07:51:54;;;;;;;45.33;7.57;;;7.80;99.90;;;;;;5047751;28;20449;-44
2022/12/24 07:54:20;;;;;;;40.50;7.05;;;7.90;99.90;;;;;;5047649;28;20063;-45
2022/12/24 07:56:45;;;;;;;58.47;8.73;;;7.90;99.90;;;;;;5046852;28;20048;-45
2022/12/24 07:59:14;;;;;;;45.58;8.80;;;8.00;99.90;;;;;;5046996;28;20045;-45
2022/12/24 08:01:40;;;;;;;48.88;8.02;;;7.90;99.90;;;;;;5047215;28;20045;-45
2022/12/24 08:04:06;;;;;;;49.40;10.93;;;8.00;99.90;;;;;;5047733;28;20053;-45
2022/12/24 08:06:31;;;;;;;50.30;8.77;;;8.00;99.90;;;;;;5047049;28;20056;-45
2022/12/24 08:08:57;;;;;;;43.90;8.02;;;7.90;99.90;;;;;;5047205;28;20051;-45
2022/12/24 08:11:23;;;;;;;55.05;10.40;;;8.90;99.90;;;;;;5045734;28;20178;-44
2022/12/24 08:13:48;;;;;;;56.28;8.93;;;8.00;99.90;;;;;;5046878;28;20045;-44
2022/12/24 08:16:14;;;;;;;49.45;8.15;;;8.30;99.90;;;;;;5046929;28;20044;-45
2022/12/24 08:18:40;;;;;;;46.50;8.02;;;8.10;99.90;;;;;;5046540;28;20490;-44
2022/12/24 08:21:07;;;;;;;47.92;9.75;;;8.10;99.90;;;;;;5046578;28;20441;-46
2022/12/24 08:23:33;;;;;;;58.72;10.85;;;8.10;99.90;;;;;;5046563;28;20044;-45
2022/12/24 08:25:59;;;;;;;62.08;9.05;;;8.40;99.90;;;;;;5046802;28;20190;-44
2022/12/24 08:28:24;;;;;;;48.75;8.10;;;8.10;99.90;;;;;;5044634;28;20665;-44
2022/12/24 08:30:51;;;;;;;50.22;8.38;;;8.10;99.90;;;;;;5046386;28;20045;-47
2022/12/24 08:33:17;;;;;;;47.22;6.95;;;8.10;99.90;;;;;;5046302;28;20040;-44
2022/12/24 08:35:50;;;;;;;52.75;9.48;;;8.10;99.90;;;;;;5046491;28;20044;-46
2022/12/24 08:38:16;;;;;;;43.97;7.63;;;8.20;99.90;;;;;;5046440;28;20041;-46
2022/12/24 08:40:43;;;;;;;57.70;9.25;;;8.20;99.90;;;;;;5045767;28;20037;-46
2022/12/24 08:43:09;;;;;;;48.00;7.28;;;8.60;99.90;;;;;;5046650;28;20037;-44
2022/12/24 08:45:37;;;;;;;49.22;7.80;;;8.20;99.90;;;;;;5046751;28;20487;-44
2022/12/24 08:48:02;;;;;;;47.75;6.78;;;8.30;99.90;;;;;;5046560;28;20045;-44
2022/12/24 08:50:28;;;;;;;51.88;7.95;;;8.30;99.90;;;;;;5046720;28;20086;-45
2022/12/24 08:52:54;;;;;;;48.50;7.03;;;8.30;99.90;;;;;;5046586;28;20071;-46
2022/12/24 08:55:19;;;;;;;55.88;8.20;;;8.30;99.90;;;;;;5046544;28;20060;-46
2022/12/24 08:57:45;;;;;;;51.28;8.38;;;8.30;99.90;;;;;;5046407;28;20045;-45
2022/12/24 09:00:12;;;;;;;54.53;9.60;;;8.30;99.90;;;;;;5046354;28;20475;-47
2022/12/24 09:02:38;;;;;;;50.38;9.00;;;8.30;99.90;;;;;;5046461;28;20045;-45
2022/12/24 09:05:04;;;;;;;51.40;8.85;;;8.40;99.90;;;;;;5046949;28;20423;-44
2022/12/24 09:07:29;;;;;;;46.80;8.18;;;8.40;99.90;;;;;;5046475;28;20127;-44
2022/12/24 09:09:55;;;;;;;49.35;10.73;;;8.90;99.90;;;;;;5046495;28;20132;-44
2022/12/24 09:12:21;;;;;;;56.85;10.35;;;8.50;99.90;;;;;;5046414;28;20072;-43
2022/12/24 09:14:46;;;;;;;44.63;10.38;;;8.50;99.90;;;;;;5046368;28;20094;-43
2022/12/24 09:17:12;;;;;;;49.03;11.18;;;8.50;99.90;;;;;;5046844;28;20570;-45
2022/12/24 09:19:38;;;;;;;58.53;10.50;;;8.50;99.90;;;;;;5046427;28;20053;-44
2022/12/24 09:22:04;;;;;;;51.17;9.95;;;8.60;99.90;;;;;;5046807;28;20060;-44
2022/12/24 09:24:29;;;;;;;51.55;10.45;;;8.60;99.90;;;;;;5046584;28;20576;-42
2022/12/24 09:26:55;;;;;;;50.88;9.52;;;8.50;99.90;;;;;;5044523;28;20041;-44
2022/12/24 09:29:21;;;;;;;58.17;12.25;;;8.60;99.90;;;;;;5045610;28;20045;-43
2022/12/24 09:31:46;;;;;;;63.10;10.65;;;8.70;99.90;;;;;;5045867;28;20128;-44
2022/12/24 09:34:12;;;;;;;50.80;10.50;;;8.60;99.90;;;;;;5045994;28;20091;-44
2022/12/24 09:36:38;;;;;;;53.42;10.50;;;8.70;99.90;;;;;;5046317;28;20053;-43
2022/12/24 09:39:03;;;;;;;53.30;10.77;;;8.70;99.90;;;;;;5046010;28;20376;-44
2022/12/24 09:42:04;;;;;;;57.10;12.80;;;8.80;99.90;;;;;;5045876;28;20045;-44
2022/12/24 09:44:36;;;;;;;51.15;10.32;;;8.80;99.90;;;;;;5047970;28;20141;-43
2022/12/24 09:47:09;;;;;;;56.35;10.38;;;8.70;99.90;;;;;;5049969;28;20049;-44
2022/12/24 09:49:40;;;;;;;53.53;10.30;;;8.70;99.90;;;;;;5050100;28;20081;-44
2022/12/24 09:52:11;;;;;;;66.13;11.45;;;8.60;99.90;;;;;;5049403;28;20045;-43
2022/12/24 09:54:43;;;;;;;60.40;12.05;;;8.70;99.90;;;;;;5049763;28;20048;-43
2022/12/24 09:57:31;;;;;;;56.95;11.15;;;8.70;99.90;;;;;;5049629;28;20044;-43
2022/12/24 09:59:57;;;;;;;46.58;9.05;;;8.70;99.90;;;;;;5048908;28;20826;-44
2022/12/24 10:02:23;;;;;;;46.60;10.65;;;8.80;99.90;;;;;;5049014;28;20120;-44
2022/12/24 10:04:48;;;;;;;60.05;10.73;;;8.80;99.90;;;;;;5049170;28;20126;-43
2022/12/24 10:07:26;;;;;;;54.67;10.55;;;9.20;99.90;;;;;;5048982;28;20118;-44
2022/12/24 10:10:20;;;;;;;51.78;9.95;;;8.90;99.90;;;;;;5049208;28;20106;-43
2022/12/24 10:12:55;;;;;;;57.80;9.07;;;8.80;99.90;;;;;;5049168;28;20048;-45
2022/12/24 10:15:59;;;;;;;41.80;7.85;;;8.80;99.90;;;;;;5048964;28;20099;-43
2022/12/24 10:18:48;;;;;;;35.40;6.93;;;8.80;99.90;;;;;;5045417;28;20063;-45
2022/12/24 10:21:49;;;;;;;40.22;9.15;;;8.70;99.90;;;;;;5049089;28;20482;-44
2022/12/24 10:24:19;;;;;;;37.53;6.45;;;9.00;99.90;;;;;;5049113;28;20546;-44
2022/12/24 10:26:52;;;;;;;29.48;5.38;;;8.60;99.90;;;;;;5049614;28;20044;-44
2022/12/24 10:29:35;;;;;;;33.80;5.80;;;8.60;99.90;;;;;;5049203;28;20037;-43
2022/12/24 10:32:07;;;;;;;25.33;4.63;;;8.60;99.90;;;;;;5049393;28;20048;-44
2022/12/24 10:34:38;;;;;;;28.98;4.10;;;8.60;99.90;;;;;;5049493;28;20041;-44
2022/12/24 10:37:05;;;;;;;30.77;5.03;;;9.00;99.90;;;;;;5048895;28;20037;-44
2022/12/24 10:39:31;;;;;;;35.70;5.60;;;8.50;99.90;;;;;;5049145;28;20333;-44
2022/12/24 10:41:59;;;;;;;24.73;5.25;;;8.50;99.90;;;;;;5048677;28;20048;-44
2022/12/24 10:44:31;;;;;;;30.42;6.10;;;8.50;99.90;;;;;;5048880;28;20051;-43
2022/12/24 10:46:58;;;;;;;30.70;5.70;;;8.60;99.90;;;;;;5048796;28;20037;-44
2022/12/24 10:49:29;;;;;;;35.38;6.30;;;8.70;99.90;;;;;;5048880;28;20658;-43
2022/12/24 10:52:01;;;;;;;30.75;5.75;;;8.70;99.90;;;;;;5048446;28;20678;-44
2022/12/24 10:54:28;;;;;;;37.33;7.18;;;8.80;99.90;;;;;;5049116;28;20049;-43
2022/12/24 10:57:00;;;;;;;34.55;6.40;;;8.80;99.90;;;;;;5047493;28;20499;-44
2022/12/24 10:59:30;;;;;;;35.88;6.53;;;9.00;99.90;;;;;;5049073;28;20112;-45
2022/12/24 11:01:58;;;;;;;36.08;6.28;;;9.00;99.90;;;;;;5048198;28;20041;-43
2022/12/24 11:04:29;;;;;;;38.60;6.97;;;9.30;99.90;;;;;;5048362;28;20041;-46
2022/12/24 11:07:01;;;;;;;35.65;6.40;;;9.10;99.90;;;;;;5047949;28;20095;-45
2022/12/24 11:09:33;;;;;;;38.70;6.90;;;8.10;99.90;;;;;;5048406;28;20601;-45
2022/12/24 11:12:01;;;;;;;32.08;6.93;;;9.20;99.90;;;;;;5047928;28;20049;-43
2022/12/24 11:14:33;;;;;;;41.33;6.45;;;9.20;99.90;;;;;;5048700;28;20048;-45
2022/12/24 11:16:59;;;;;;;39.25;7.68;;;9.30;99.90;;;;;;5047894;28;20043;-45
2022/12/24 11:19:40;;;;;;;44.10;7.43;;;9.20;99.90;;;;;;5048271;28;20041;-45
2022/12/24 11:22:16;;;;;;;46.70;6.97;;;9.30;99.90;;;;;;5046409;28;20126;-44
2022/12/24 11:24:42;;;;;;;32.70;4.78;;;9.20;99.90;;;;;;5048142;28;20045;-44
2022/12/24 11:27:48;;;;;;;45.13;6.47;;;9.20;99.90;;;;;;5047564;28;20061;-44
2022/12/24 11:30:14;;;;;;;40.90;6.55;;;9.20;99.90;;;;;;5024891;28;20045;-47
2022/12/24 11:32:41;;;;;;;37.90;5.05;;;9.20;99.90;;;;;;5035814;28;20061;-45
2022/12/24 11:35:14;;;;;;;40.85;7.03;;;9.10;99.90;;;;;;5043386;28;20116;-50
2022/12/24 11:37:40;;;;;;;38.13;5.03;;;9.10;99.90;;;;;;5045731;28;20664;-49
2022/12/24 11:40:22;;;;;;;34.10;5.85;;;9.00;99.90;;;;;;5046270;28;20045;-54
2022/12/24 11:42:52;;;;;;;46.60;6.47;;;9.00;99.90;;;;;;5046295;28;20045;-52
2022/12/24 11:45:23;;;;;;;36.72;4.93;;;9.00;99.90;;;;;;5045906;28;20550;-49
2022/12/24 11:47:49;;;;;;;32.88;5.32;;;9.10;99.90;;;;;;5046326;28;20570;-46
2022/12/24 11:50:35;;;;;;;37.33;5.53;;;9.30;99.90;;;;;;5046309;28;20036;-46
2022/12/24 11:53:17;;;;;;;35.92;5.80;;;9.00;99.90;;;;;;5045984;28;20555;-48
2022/12/24 11:55:45;;;;;;;;;;;9.30;99.90;;;;;;5046702;28;20082;-54
2022/12/24 11:58:38;;;;;;;33.70;5.75;;;9.10;99.90;;;;;;5045715;28;20595;-46
2022/12/24 12:01:21;;;;;;;43.42;6.13;;;9.00;99.90;;;;;;5045109;28;20148;-47
2022/12/24 12:04:13;;;;;;;48.85;5.40;;;9.00;99.90;;;;;;5045982;28;20056;-53
2022/12/24 12:06:55;;;;;;;43.70;6.53;;;9.00;99.90;;;;;;5042988;28;20044;-47
2022/12/24 12:09:31;;;;;;;30.15;4.47;;;9.00;99.90;;;;;;5045935;28;20447;-46
2022/12/24 12:12:06;;;;;;;28.73;4.57;;;9.00;99.90;;;;;;5046138;28;20045;-47
2022/12/24 12:14:38;;;;;;;40.65;5.53;;;9.00;99.90;;;;;;5044690;28;20056;-45
2022/12/24 12:17:26;;;;;;;41.05;7.43;;;9.00;99.90;;;;;;5045602;28;20041;-45
2022/12/24 12:20:24;;;;;;;40.30;5.40;;;9.00;99.90;;;;;;5045632;28;20246;-52
2022/12/24 12:23:18;;;;;;;42.28;5.78;;;9.00;99.90;;;;;;5045967;28;20040;-47
2022/12/24 12:25:52;;;;;;;37.92;6.25;;;9.00;99.90;;;;;;5045110;28;20444;-52
2022/12/24 12:28:24;;;;;;;36.97;4.53;;;9.30;99.90;;;;;;5045581;28;20749;-48
2022/12/24 12:31:33;;;;;;;38.88;5.18;;;9.00;99.90;;;;;;5045583;28;20045;-55
2022/12/24 12:34:17;;;;;;;38.65;4.93;;;9.00;99.90;;;;;;5042658;28;20063;-48
2022/12/24 12:36:48;;;;;;;34.38;4.45;;;8.90;99.90;;;;;;5045798;28;20051;-47
2022/12/24 12:39:14;;;;;;;29.58;4.93;;;9.00;99.90;;;;;;5045286;28;20040;-48
2022/12/24 12:42:02;;;;;;;36.50;4.22;;;9.10;99.90;;;;;;5045051;28;20564;-45
2022/12/24 12:44:44;;;;;;;35.35;4.82;;;9.30;99.90;;;;;;5045120;28;20041;-45
2022/12/24 12:47:34;;;;;;;31.63;4.10;;;9.00;99.90;;;;;;5045441;28;20088;-49
2022/12/24 12:50:18;;;;;;;31.60;3.70;;;9.00;99.90;;;;;;5045616;28;20135;-59
2022/12/24 12:52:47;;;;;;;40.10;6.07;;;9.00;99.90;;;;;;5045895;28;20703;-45
2022/12/24 12:55:40;;;;;;;26.90;3.58;;;9.00;99.90;;;;;;5045482;28;20131;-48
2022/12/24 12:58:32;;;;;;;31.98;3.75;;;9.00;99.90;;;;;;5045596;28;20044;-46
2022/12/24 13:01:06;;;;;;;31.00;5.15;;;8.90;99.90;;;;;;5044499;28;20049;-47
2022/12/24 13:03:47;;;;;;;30.60;3.30;;;9.20;99.90;;;;;;5045393;28;20228;-49
2022/12/24 13:06:15;;;;;;;34.60;3.80;;;8.80;99.90;;;;;;5045013;28;20143;-43
2022/12/24 13:08:57;;;;;;;30.35;3.78;;;8.90;99.90;;;;;;5044048;28;20446;-46